sensor_id;sensor_type;location;lat;lon;timestamp;temperature;humidity
47618;DHT22;33336;36.728;-4.414;2022-08-01T00:04:32;29.50;95.60
47618;DHT22;33336;36.728;-4.414;2022-08-01T00:09:36;29.10;95.80
47618;DHT22;33336;36.728;-4.414;2022-08-01T00:14:39;30.00;95.20
47618;DHT22;33336;36.728;-4.414;2022-08-01T00:19:45;30.30;94.60
47618;DHT22;33336;36.728;-4.414;2022-08-01T00:24:48;30.20;95.10
47618;DHT22;33336;36.728;-4.414;2022-08-01T00:29:52;29.80;95.90
47618;DHT22;33336;36.728;-4.414;2022-08-01T00:34:56;29.60;96.30
47618;DHT22;33336;36.728;-4.414;2022-08-01T00:40:00;29.80;96.00
47618;DHT22;33336;36.728;-4.414;2022-08-01T00:45:04;29.70;96.20
47618;DHT22;33336;36.728;-4.414;2022-08-01T00:50:10;29.50;96.40
47618;DHT22;33336;36.728;-4.414;2022-08-01T00:55:13;29.40;96.70
47618;DHT22;33336;36.728;-4.414;2022-08-01T01:00:17;29.40;96.70
47618;DHT22;33336;36.728;-4.414;2022-08-01T01:05:22;29.80;96.30
47618;DHT22;33336;36.728;-4.414;2022-08-01T01:10:32;30.20;95.70
47618;DHT22;33336;36.728;-4.414;2022-08-01T01:15:42;29.70;96.20
47618;DHT22;33336;36.728;-4.414;2022-08-01T01:20:56;29.90;95.20
47618;DHT22;33336;36.728;-4.414;2022-08-01T01:26:25;30.20;94.90
47618;DHT22;33336;36.728;-4.414;2022-08-01T01:31:39;29.30;95.90
47618;DHT22;33336;36.728;-4.414;2022-08-01T01:36:44;30.00;95.00
47618;DHT22;33336;36.728;-4.414;2022-08-01T01:41:50;29.70;95.10
47618;DHT22;33336;36.728;-4.414;2022-08-01T01:46:56;29.40;95.30
47618;DHT22;33336;36.728;-4.414;2022-08-01T01:52:02;29.90;94.90
47618;DHT22;33336;36.728;-4.414;2022-08-01T01:57:06;29.60;94.90
47618;DHT22;33336;36.728;-4.414;2022-08-01T02:02:12;29.70;94.60
47618;DHT22;33336;36.728;-4.414;2022-08-01T02:07:19;29.90;94.40
47618;DHT22;33336;36.728;-4.414;2022-08-01T02:12:25;29.90;94.30
47618;DHT22;33336;36.728;-4.414;2022-08-01T02:17:29;30.00;94.20
47618;DHT22;33336;36.728;-4.414;2022-08-01T02:22:36;30.00;94.20
47618;DHT22;33336;36.728;-4.414;2022-08-01T02:27:46;29.90;94.40
47618;DHT22;33336;36.728;-4.414;2022-08-01T02:33:03;29.90;94.30
47618;DHT22;33336;36.728;-4.414;2022-08-01T02:38:10;29.70;94.40
47618;DHT22;33336;36.728;-4.414;2022-08-01T02:43:17;29.80;94.40
47618;DHT22;33336;36.728;-4.414;2022-08-01T02:48:23;29.40;94.90
47618;DHT22;33336;36.728;-4.414;2022-08-01T02:53:32;29.10;95.50
47618;DHT22;33336;36.728;-4.414;2022-08-01T02:58:38;29.60;95.00
47618;DHT22;33336;36.728;-4.414;2022-08-01T03:03:43;29.30;95.20
47618;DHT22;33336;36.728;-4.414;2022-08-01T03:08:47;29.40;95.10
47618;DHT22;33336;36.728;-4.414;2022-08-01T03:13:52;29.50;94.90
47618;DHT22;33336;36.728;-4.414;2022-08-01T03:18:58;29.30;95.00
47618;DHT22;33336;36.728;-4.414;2022-08-01T03:24:06;28.70;95.80
47618;DHT22;33336;36.728;-4.414;2022-08-01T03:29:14;29.20;95.20
47618;DHT22;33336;36.728;-4.414;2022-08-01T03:34:20;29.30;95.00
47618;DHT22;33336;36.728;-4.414;2022-08-01T03:39:27;29.10;95.20
47618;DHT22;33336;36.728;-4.414;2022-08-01T03:44:33;29.20;95.00
47618;DHT22;33336;36.728;-4.414;2022-08-01T03:49:43;29.30;95.00
47618;DHT22;33336;36.728;-4.414;2022-08-01T03:54:51;29.40;94.80
47618;DHT22;33336;36.728;-4.414;2022-08-01T03:59:56;29.40;94.90
47618;DHT22;33336;36.728;-4.414;2022-08-01T04:05:02;29.60;94.70
47618;DHT22;33336;36.728;-4.414;2022-08-01T04:10:06;29.40;94.80
47618;DHT22;33336;36.728;-4.414;2022-08-01T04:15:09;29.20;94.90
47618;DHT22;33336;36.728;-4.414;2022-08-01T04:20:14;29.60;94.70
47618;DHT22;33336;36.728;-4.414;2022-08-01T04:25:21;29.10;95.00
47618;DHT22;33336;36.728;-4.414;2022-08-01T04:30:28;29.30;94.90
47618;DHT22;33336;36.728;-4.414;2022-08-01T04:35:34;29.30;94.80
47618;DHT22;33336;36.728;-4.414;2022-08-01T04:40:39;29.40;94.70
47618;DHT22;33336;36.728;-4.414;2022-08-01T04:45:43;29.50;94.60
47618;DHT22;33336;36.728;-4.414;2022-08-01T04:50:49;29.00;94.90
47618;DHT22;33336;36.728;-4.414;2022-08-01T04:55:52;28.90;95.50
47618;DHT22;33336;36.728;-4.414;2022-08-01T05:00:55;29.30;95.00
47618;DHT22;33336;36.728;-4.414;2022-08-01T05:06:00;29.40;94.80
47618;DHT22;33336;36.728;-4.414;2022-08-01T05:11:02;29.50;94.60
47618;DHT22;33336;36.728;-4.414;2022-08-01T05:16:06;29.30;95.10
47618;DHT22;33336;36.728;-4.414;2022-08-01T05:21:10;29.40;94.90
47618;DHT22;33336;36.728;-4.414;2022-08-01T05:26:13;28.40;95.70
47618;DHT22;33336;36.728;-4.414;2022-08-01T05:31:16;28.10;96.70
47618;DHT22;33336;36.728;-4.414;2022-08-01T05:36:21;27.90;97.10
47618;DHT22;33336;36.728;-4.414;2022-08-01T05:41:23;28.70;96.20
47618;DHT22;33336;36.728;-4.414;2022-08-01T05:46:28;28.90;95.60
47618;DHT22;33336;36.728;-4.414;2022-08-01T05:51:33;29.20;95.40
47618;DHT22;33336;36.728;-4.414;2022-08-01T05:56:36;29.20;95.40
47618;DHT22;33336;36.728;-4.414;2022-08-01T06:01:39;29.30;95.10
47618;DHT22;33336;36.728;-4.414;2022-08-01T06:06:43;29.50;95.10
47618;DHT22;33336;36.728;-4.414;2022-08-01T06:11:47;29.30;95.20
47618;DHT22;33336;36.728;-4.414;2022-08-01T06:16:50;29.50;95.20
47618;DHT22;33336;36.728;-4.414;2022-08-01T06:21:54;28.80;95.40
47618;DHT22;33336;36.728;-4.414;2022-08-01T06:26:58;29.40;95.30
47618;DHT22;33336;36.728;-4.414;2022-08-01T06:32:01;29.40;95.10
47618;DHT22;33336;36.728;-4.414;2022-08-01T06:37:06;29.70;94.90
47618;DHT22;33336;36.728;-4.414;2022-08-01T06:42:08;29.30;95.20
47618;DHT22;33336;36.728;-4.414;2022-08-01T06:47:12;29.80;94.80
47618;DHT22;33336;36.728;-4.414;2022-08-01T06:52:16;29.80;94.80
47618;DHT22;33336;36.728;-4.414;2022-08-01T06:57:21;29.80;94.80
47618;DHT22;33336;36.728;-4.414;2022-08-01T07:02:23;29.60;95.20
47618;DHT22;33336;36.728;-4.414;2022-08-01T07:07:29;30.10;94.70
47618;DHT22;33336;36.728;-4.414;2022-08-01T07:12:32;30.10;94.90
47618;DHT22;33336;36.728;-4.414;2022-08-01T07:17:37;30.30;94.60
47618;DHT22;33336;36.728;-4.414;2022-08-01T07:22:42;30.60;94.30
47618;DHT22;33336;36.728;-4.414;2022-08-01T07:27:45;31.00;94.10
47618;DHT22;33336;36.728;-4.414;2022-08-01T07:32:48;31.00;94.30
47618;DHT22;33336;36.728;-4.414;2022-08-01T07:37:53;31.20;94.10
47618;DHT22;33336;36.728;-4.414;2022-08-01T07:42:55;31.30;93.90
47618;DHT22;33336;36.728;-4.414;2022-08-01T07:48:02;31.50;94.00
47618;DHT22;33336;36.728;-4.414;2022-08-01T07:53:07;31.80;93.80
47618;DHT22;33336;36.728;-4.414;2022-08-01T07:58:11;31.90;93.50
47618;DHT22;33336;36.728;-4.414;2022-08-01T08:03:14;32.00;93.70
47618;DHT22;33336;36.728;-4.414;2022-08-01T08:08:19;31.00;94.50
47618;DHT22;33336;36.728;-4.414;2022-08-01T08:13:21;30.90;95.10
47618;DHT22;33336;36.728;-4.414;2022-08-01T08:18:25;31.20;95.00
47618;DHT22;33336;36.728;-4.414;2022-08-01T08:23:29;31.50;94.90
47618;DHT22;33336;36.728;-4.414;2022-08-01T08:28:50;30.80;95.50
47618;DHT22;33336;36.728;-4.414;2022-08-01T08:33:53;31.30;95.30
47618;DHT22;33336;36.728;-4.414;2022-08-01T08:38:58;30.70;95.70
47618;DHT22;33336;36.728;-4.414;2022-08-01T08:44:02;31.60;95.20
47618;DHT22;33336;36.728;-4.414;2022-08-01T08:49:06;31.80;94.80
47618;DHT22;33336;36.728;-4.414;2022-08-01T08:54:12;31.70;94.70
47618;DHT22;33336;36.728;-4.414;2022-08-01T08:59:15;31.60;95.40
47618;DHT22;33336;36.728;-4.414;2022-08-01T09:04:20;31.40;95.00
47618;DHT22;33336;36.728;-4.414;2022-08-01T09:09:26;31.50;95.00
47618;DHT22;33336;36.728;-4.414;2022-08-01T09:14:28;31.60;94.70
47618;DHT22;33336;36.728;-4.414;2022-08-01T09:19:37;32.10;94.50
47618;DHT22;33336;36.728;-4.414;2022-08-01T09:24:42;32.00;94.70
47618;DHT22;33336;36.728;-4.414;2022-08-01T09:29:45;32.40;94.40
47618;DHT22;33336;36.728;-4.414;2022-08-01T09:34:48;32.50;94.20
47618;DHT22;33336;36.728;-4.414;2022-08-01T09:39:56;32.10;94.70
47618;DHT22;33336;36.728;-4.414;2022-08-01T09:44:59;32.30;94.60
47618;DHT22;33336;36.728;-4.414;2022-08-01T09:50:04;32.30;94.60
47618;DHT22;33336;36.728;-4.414;2022-08-01T09:55:09;32.50;94.50
47618;DHT22;33336;36.728;-4.414;2022-08-01T10:00:17;32.70;94.20
47618;DHT22;33336;36.728;-4.414;2022-08-01T10:05:30;32.10;94.70
47618;DHT22;33336;36.728;-4.414;2022-08-01T10:10:36;32.70;94.00
47618;DHT22;33336;36.728;-4.414;2022-08-01T10:15:39;32.90;93.80
47618;DHT22;33336;36.728;-4.414;2022-08-01T10:20:43;32.90;94.00
47618;DHT22;33336;36.728;-4.414;2022-08-01T10:25:48;33.20;93.60
47618;DHT22;33336;36.728;-4.414;2022-08-01T10:30:54;33.20;93.30
47618;DHT22;33336;36.728;-4.414;2022-08-01T10:35:57;33.30;93.20
47618;DHT22;33336;36.728;-4.414;2022-08-01T10:41:03;33.40;93.40
47618;DHT22;33336;36.728;-4.414;2022-08-01T10:46:07;33.90;92.70
47618;DHT22;33336;36.728;-4.414;2022-08-01T10:51:09;33.90;92.60
47618;DHT22;33336;36.728;-4.414;2022-08-01T10:56:15;33.50;93.20
47618;DHT22;33336;36.728;-4.414;2022-08-01T11:01:23;33.50;93.00
47618;DHT22;33336;36.728;-4.414;2022-08-01T11:06:35;33.70;93.10
47618;DHT22;33336;36.728;-4.414;2022-08-01T11:12:01;34.00;92.70
47618;DHT22;33336;36.728;-4.414;2022-08-01T11:17:31;33.70;92.70
47618;DHT22;33336;36.728;-4.414;2022-08-01T11:28:31;34.50;91.90
47618;DHT22;33336;36.728;-4.414;2022-08-01T11:33:49;34.50;91.80
47618;DHT22;33336;36.728;-4.414;2022-08-01T11:39:13;34.40;92.10
47618;DHT22;33336;36.728;-4.414;2022-08-01T11:44:20;34.30;91.80
47618;DHT22;33336;36.728;-4.414;2022-08-01T11:49:33;34.80;91.70
47618;DHT22;33336;36.728;-4.414;2022-08-01T11:54:38;34.50;91.40
47618;DHT22;33336;36.728;-4.414;2022-08-01T11:59:45;34.50;92.00
47618;DHT22;33336;36.728;-4.414;2022-08-01T12:04:52;33.90;92.40
47618;DHT22;33336;36.728;-4.414;2022-08-01T12:10:00;34.60;91.60
47618;DHT22;33336;36.728;-4.414;2022-08-01T12:15:07;34.20;91.90
47618;DHT22;33336;36.728;-4.414;2022-08-01T12:20:13;34.70;91.40
47618;DHT22;33336;36.728;-4.414;2022-08-01T12:25:17;34.70;91.60
47618;DHT22;33336;36.728;-4.414;2022-08-01T12:30:26;35.50;90.90
47618;DHT22;33336;36.728;-4.414;2022-08-01T12:35:37;35.70;90.80
47618;DHT22;33336;36.728;-4.414;2022-08-01T12:40:46;35.20;91.00
47618;DHT22;33336;36.728;-4.414;2022-08-01T12:45:54;34.50;91.50
47618;DHT22;33336;36.728;-4.414;2022-08-01T12:50:58;35.10;91.30
47618;DHT22;33336;36.728;-4.414;2022-08-01T12:56:02;34.40;91.90
47618;DHT22;33336;36.728;-4.414;2022-08-01T13:01:07;35.10;91.40
47618;DHT22;33336;36.728;-4.414;2022-08-01T13:06:16;35.60;91.00
47618;DHT22;33336;36.728;-4.414;2022-08-01T13:11:19;35.30;91.40
47618;DHT22;33336;36.728;-4.414;2022-08-01T13:16:25;35.80;90.70
47618;DHT22;33336;36.728;-4.414;2022-08-01T13:21:30;35.50;90.90
47618;DHT22;33336;36.728;-4.414;2022-08-01T13:26:40;36.10;90.40
47618;DHT22;33336;36.728;-4.414;2022-08-01T13:31:45;36.10;90.00
47618;DHT22;33336;36.728;-4.414;2022-08-01T13:36:48;35.70;90.80
47618;DHT22;33336;36.728;-4.414;2022-08-01T13:41:52;36.40;90.00
47618;DHT22;33336;36.728;-4.414;2022-08-01T13:46:56;36.30;90.40
47618;DHT22;33336;36.728;-4.414;2022-08-01T13:52:01;36.80;89.10
47618;DHT22;33336;36.728;-4.414;2022-08-01T13:57:04;36.80;89.70
47618;DHT22;33336;36.728;-4.414;2022-08-01T14:02:08;36.80;87.10
47618;DHT22;33336;36.728;-4.414;2022-08-01T14:07:11;36.40;90.10
47618;DHT22;33336;36.728;-4.414;2022-08-01T14:12:14;36.30;89.70
47618;DHT22;33336;36.728;-4.414;2022-08-01T14:17:18;36.20;89.80
47618;DHT22;33336;36.728;-4.414;2022-08-01T14:22:22;36.80;88.70
47618;DHT22;33336;36.728;-4.414;2022-08-01T14:27:25;37.20;88.10
47618;DHT22;33336;36.728;-4.414;2022-08-01T14:32:33;37.40;87.70
47618;DHT22;33336;36.728;-4.414;2022-08-01T14:37:35;37.40;86.90
47618;DHT22;33336;36.728;-4.414;2022-08-01T14:42:39;37.10;87.20
47618;DHT22;33336;36.728;-4.414;2022-08-01T14:47:43;37.90;86.70
47618;DHT22;33336;36.728;-4.414;2022-08-01T14:52:47;36.80;88.20
47618;DHT22;33336;36.728;-4.414;2022-08-01T14:57:51;37.70;86.70
47618;DHT22;33336;36.728;-4.414;2022-08-01T15:02:56;38.00;86.00
47618;DHT22;33336;36.728;-4.414;2022-08-01T15:07:59;38.00;85.70
47618;DHT22;33336;36.728;-4.414;2022-08-01T15:13:01;38.40;84.90
47618;DHT22;33336;36.728;-4.414;2022-08-01T15:18:06;38.30;84.70
47618;DHT22;33336;36.728;-4.414;2022-08-01T15:23:10;38.80;84.10
47618;DHT22;33336;36.728;-4.414;2022-08-01T15:28:13;37.60;85.10
47618;DHT22;33336;36.728;-4.414;2022-08-01T15:33:18;37.80;85.40
47618;DHT22;33336;36.728;-4.414;2022-08-01T15:38:26;37.70;84.50
47618;DHT22;33336;36.728;-4.414;2022-08-01T15:43:29;38.30;84.60
47618;DHT22;33336;36.728;-4.414;2022-08-01T15:48:33;37.50;86.00
47618;DHT22;33336;36.728;-4.414;2022-08-01T15:53:37;38.60;83.50
47618;DHT22;33336;36.728;-4.414;2022-08-01T15:58:40;39.40;82.80
47618;DHT22;33336;36.728;-4.414;2022-08-01T16:03:44;39.00;83.00
47618;DHT22;33336;36.728;-4.414;2022-08-01T16:08:47;39.90;81.20
47618;DHT22;33336;36.728;-4.414;2022-08-01T16:13:50;40.00;81.00
47618;DHT22;33336;36.728;-4.414;2022-08-01T16:18:54;40.00;80.40
47618;DHT22;33336;36.728;-4.414;2022-08-01T16:23:58;40.50;79.90
47618;DHT22;33336;36.728;-4.414;2022-08-01T16:29:01;40.00;78.30
47618;DHT22;33336;36.728;-4.414;2022-08-01T16:34:05;40.90;77.60
47618;DHT22;33336;36.728;-4.414;2022-08-01T16:39:08;41.60;76.50
47618;DHT22;33336;36.728;-4.414;2022-08-01T16:44:11;41.40;77.30
47618;DHT22;33336;36.728;-4.414;2022-08-01T16:49:15;41.40;76.10
47618;DHT22;33336;36.728;-4.414;2022-08-01T16:54:19;40.90;77.30
47618;DHT22;33336;36.728;-4.414;2022-08-01T16:59:22;40.80;77.10
47618;DHT22;33336;36.728;-4.414;2022-08-01T17:04:29;40.20;77.80
47618;DHT22;33336;36.728;-4.414;2022-08-01T17:09:32;39.40;77.50
47618;DHT22;33336;36.728;-4.414;2022-08-01T17:14:39;39.90;78.70
47618;DHT22;33336;36.728;-4.414;2022-08-01T17:19:44;39.90;77.70
47618;DHT22;33336;36.728;-4.414;2022-08-01T17:24:49;39.60;78.80
47618;DHT22;33336;36.728;-4.414;2022-08-01T17:29:52;39.40;78.90
47618;DHT22;33336;36.728;-4.414;2022-08-01T17:34:58;38.70;79.70
47618;DHT22;33336;36.728;-4.414;2022-08-01T17:40:01;38.60;80.70
47618;DHT22;33336;36.728;-4.414;2022-08-01T17:45:06;38.70;81.10
47618;DHT22;33336;36.728;-4.414;2022-08-01T17:50:11;38.70;81.10
47618;DHT22;33336;36.728;-4.414;2022-08-01T17:55:14;38.40;80.50
47618;DHT22;33336;36.728;-4.414;2022-08-01T18:00:17;38.50;80.30
47618;DHT22;33336;36.728;-4.414;2022-08-01T18:05:22;38.60;80.30
47618;DHT22;33336;36.728;-4.414;2022-08-01T18:10:26;38.30;81.20
47618;DHT22;33336;36.728;-4.414;2022-08-01T18:15:29;37.00;83.10
47618;DHT22;33336;36.728;-4.414;2022-08-01T18:20:34;37.60;82.50
47618;DHT22;33336;36.728;-4.414;2022-08-01T18:25:39;37.30;83.00
47618;DHT22;33336;36.728;-4.414;2022-08-01T18:30:42;36.20;84.60
47618;DHT22;33336;36.728;-4.414;2022-08-01T18:35:46;36.80;84.10
47618;DHT22;33336;36.728;-4.414;2022-08-01T18:40:49;36.70;84.90
47618;DHT22;33336;36.728;-4.414;2022-08-01T18:45:53;36.30;85.20
47618;DHT22;33336;36.728;-4.414;2022-08-01T18:50:59;36.20;86.00
47618;DHT22;33336;36.728;-4.414;2022-08-01T18:56:02;36.00;86.30
47618;DHT22;33336;36.728;-4.414;2022-08-01T19:01:11;35.10;87.80
47618;DHT22;33336;36.728;-4.414;2022-08-01T19:06:16;35.30;87.40
47618;DHT22;33336;36.728;-4.414;2022-08-01T19:11:19;35.30;87.70
47618;DHT22;33336;36.728;-4.414;2022-08-01T19:16:23;35.10;87.80
47618;DHT22;33336;36.728;-4.414;2022-08-01T19:21:28;34.30;90.00
47618;DHT22;33336;36.728;-4.414;2022-08-01T19:26:32;34.10;90.00
47618;DHT22;33336;36.728;-4.414;2022-08-01T19:31:39;33.00;91.60
47618;DHT22;33336;36.728;-4.414;2022-08-01T19:36:45;32.90;91.00
47618;DHT22;33336;36.728;-4.414;2022-08-01T19:41:50;33.20;91.00
47618;DHT22;33336;36.728;-4.414;2022-08-01T19:46:54;32.90;91.20
47618;DHT22;33336;36.728;-4.414;2022-08-01T19:51:59;32.50;91.80
47618;DHT22;33336;36.728;-4.414;2022-08-01T19:57:05;32.60;92.10
47618;DHT22;33336;36.728;-4.414;2022-08-01T20:02:08;32.70;92.20
47618;DHT22;33336;36.728;-4.414;2022-08-01T20:07:13;32.30;92.80
47618;DHT22;33336;36.728;-4.414;2022-08-01T20:12:19;32.50;92.70
47618;DHT22;33336;36.728;-4.414;2022-08-01T20:17:23;32.10;93.10
47618;DHT22;33336;36.728;-4.414;2022-08-01T20:22:31;32.00;93.00
47618;DHT22;33336;36.728;-4.414;2022-08-01T20:27:36;30.90;94.30
47618;DHT22;33336;36.728;-4.414;2022-08-01T20:32:40;30.20;95.40
47618;DHT22;33336;36.728;-4.414;2022-08-01T20:37:47;30.10;95.80
47618;DHT22;33336;36.728;-4.414;2022-08-01T20:42:51;30.10;95.80
47618;DHT22;33336;36.728;-4.414;2022-08-01T20:47:55;29.80;96.50
47618;DHT22;33336;36.728;-4.414;2022-08-01T20:53:01;30.00;96.50
47618;DHT22;33336;36.728;-4.414;2022-08-01T20:58:04;30.00;96.40
47618;DHT22;33336;36.728;-4.414;2022-08-01T21:03:12;30.00;96.60
47618;DHT22;33336;36.728;-4.414;2022-08-01T21:08:21;30.80;95.70
47618;DHT22;33336;36.728;-4.414;2022-08-01T21:13:30;30.60;95.70
47618;DHT22;33336;36.728;-4.414;2022-08-01T21:18:42;31.20;94.90
47618;DHT22;33336;36.728;-4.414;2022-08-01T21:23:58;31.50;94.30
47618;DHT22;33336;36.728;-4.414;2022-08-01T21:29:04;31.40;94.40
47618;DHT22;33336;36.728;-4.414;2022-08-01T21:34:08;31.60;94.20
47618;DHT22;33336;36.728;-4.414;2022-08-01T21:39:15;31.30;94.70
47618;DHT22;33336;36.728;-4.414;2022-08-01T21:44:18;31.50;94.40
47618;DHT22;33336;36.728;-4.414;2022-08-01T21:49:26;30.60;95.30
47618;DHT22;33336;36.728;-4.414;2022-08-01T21:54:34;30.50;95.50
47618;DHT22;33336;36.728;-4.414;2022-08-01T21:59:57;31.00;95.20
47618;DHT22;33336;36.728;-4.414;2022-08-01T22:05:04;31.10;94.80
47618;DHT22;33336;36.728;-4.414;2022-08-01T22:10:12;31.20;94.30
47618;DHT22;33336;36.728;-4.414;2022-08-01T22:15:18;30.80;94.00
47618;DHT22;33336;36.728;-4.414;2022-08-01T22:20:24;29.40;95.90
47618;DHT22;33336;36.728;-4.414;2022-08-01T22:25:29;29.50;95.60
47618;DHT22;33336;36.728;-4.414;2022-08-01T22:30:39;30.10;94.50
47618;DHT22;33336;36.728;-4.414;2022-08-01T22:35:43;30.20;94.20
47618;DHT22;33336;36.728;-4.414;2022-08-01T22:40:50;30.60;93.40
47618;DHT22;33336;36.728;-4.414;2022-08-01T22:46:04;29.00;95.50
47618;DHT22;33336;36.728;-4.414;2022-08-01T22:51:20;29.20;96.00
47618;DHT22;33336;36.728;-4.414;2022-08-01T22:56:29;29.60;95.60
47618;DHT22;33336;36.728;-4.414;2022-08-01T23:01:34;30.10;94.40
47618;DHT22;33336;36.728;-4.414;2022-08-01T23:06:41;30.30;94.20
47618;DHT22;33336;36.728;-4.414;2022-08-01T23:11:47;30.20;93.80
47618;DHT22;33336;36.728;-4.414;2022-08-01T23:16:50;30.30;93.80
47618;DHT22;33336;36.728;-4.414;2022-08-01T23:21:55;30.30;93.70
47618;DHT22;33336;36.728;-4.414;2022-08-01T23:27:01;30.40;93.80
47618;DHT22;33336;36.728;-4.414;2022-08-01T23:32:19;30.00;93.90
47618;DHT22;33336;36.728;-4.414;2022-08-01T23:37:22;29.50;94.50
47618;DHT22;33336;36.728;-4.414;2022-08-01T23:42:27;29.30;94.90
47618;DHT22;33336;36.728;-4.414;2022-08-01T23:47:30;29.70;94.60
47618;DHT22;33336;36.728;-4.414;2022-08-01T23:52:33;29.70;94.30
47618;DHT22;33336;36.728;-4.414;2022-08-01T23:57:37;29.90;94.20
